Bowman, Indiana
Current Conditions -  °F | °C
As of 9:55 AM on Thursday 23 Oct 2014 (Local Time) from KDCY Reporting Station
Clear Clear  
Wind Chill: 51°   Ceiling: Unl
Heat Index: 51°   Visibility: 10mi
Dew Point: 44°   Wind: 8mph
Humidity: 77%   Direction: 130°SE
Pressure: 30.26"   Gusts: NA
Location:  38.4723°N, 87.3105°W
Report Text: KDCY 231455Z AUTO 13007KT 10SM CLR 10/06 A3026 RMK AO2 T01030064
Loading
Personal Weather Stations






























Interactive Weather Map
Tropical Storm Tracking
New forecast layout! Learn more

10-Day Weather Forecast

Advertisements
Track Severe Weather on mobile